createdAt,value
2019-04-20T00:00:50.714Z,11.80
2019-04-20T00:02:39.903Z,11.80
2019-04-20T00:04:35.386Z,11.80
2019-04-20T00:06:27.091Z,11.70
2019-04-20T00:08:24.587Z,11.70
2019-04-20T00:10:17.061Z,11.80
2019-04-20T00:12:15.688Z,11.60
2019-04-20T00:14:08.322Z,11.40
2019-04-20T00:15:55.892Z,11.40
2019-04-20T00:17:54.219Z,11.40
2019-04-20T00:19:46.205Z,11.30
2019-04-20T00:21:47.020Z,11.30
2019-04-20T00:23:40.428Z,11.30
2019-04-20T00:26:00.422Z,11.40
2019-04-20T00:28:19.803Z,11.40
2019-04-20T00:30:20.622Z,11.40
2019-04-20T00:32:02.812Z,11.30
2019-04-20T00:33:54.958Z,11.40
2019-04-20T00:35:37.991Z,11.20
2019-04-20T00:37:31.924Z,11.10
2019-04-20T00:39:25.869Z,11.00
2019-04-20T00:41:20.616Z,10.90
2019-04-20T00:43:19.628Z,10.90
2019-04-20T00:45:15.467Z,10.80
2019-04-20T00:47:13.230Z,10.70
2019-04-20T00:49:01.657Z,10.70
2019-04-20T00:51:11.465Z,10.80
2019-04-20T00:52:55.791Z,10.80
2019-04-20T00:54:36.912Z,10.80
2019-04-20T00:56:29.334Z,10.70
2019-04-20T00:58:28.799Z,10.60
2019-04-20T01:00:31.583Z,10.60
2019-04-20T01:02:25.793Z,10.60
2019-04-20T01:04:21.204Z,10.70
2019-04-20T01:06:22.246Z,10.60
2019-04-20T01:08:06.049Z,10.60
2019-04-20T01:10:05.005Z,10.50
2019-04-20T01:11:58.564Z,10.50
2019-04-20T01:13:57.335Z,10.50
2019-04-20T01:15:51.544Z,10.60
2019-04-20T01:17:41.797Z,10.60
2019-04-20T01:19:33.128Z,10.60
2019-04-20T01:21:28.503Z,10.60
2019-04-20T01:23:23.777Z,10.50
2019-04-20T01:25:22.160Z,10.50
2019-04-20T01:27:25.859Z,10.60
2019-04-20T01:29:13.426Z,10.60
2019-04-20T01:31:09.224Z,10.60
2019-04-20T01:33:04.867Z,10.50
2019-04-20T01:34:55.349Z,10.40
2019-04-20T01:36:55.702Z,10.30
2019-04-20T01:38:47.213Z,10.30
2019-04-20T01:40:27.497Z,10.20
2019-04-20T01:42:21.384Z,10.30
2019-04-20T01:44:17.089Z,10.30
2019-04-20T01:46:13.150Z,10.20
2019-04-20T01:48:03.032Z,10.30
2019-04-20T01:50:03.771Z,10.20
2019-04-20T01:51:57.693Z,10.20
2019-04-20T01:54:00.806Z,10.10
2019-04-20T01:55:50.849Z,10.00
2019-04-20T01:57:56.205Z,9.90
2019-04-20T01:59:47.029Z,9.90
2019-04-20T02:01:37.460Z,9.90
2019-04-20T02:03:36.950Z,10.00
2019-04-20T02:05:29.647Z,10.10
2019-04-20T02:07:25.467Z,10.00
2019-04-20T02:09:15.668Z,10.10
2019-04-20T02:11:07.626Z,10.10
2019-04-20T02:13:02.716Z,10.10
2019-04-20T02:14:57.589Z,10.00
2019-04-20T02:16:51.501Z,10.00
2019-04-20T02:18:58.485Z,9.90
2019-04-20T02:20:54.514Z,9.80
2019-04-20T02:22:48.721Z,9.90
2019-04-20T02:24:23.824Z,10.00
2019-04-20T02:26:16.265Z,9.90
2019-04-20T02:28:27.390Z,10.00
2019-04-20T02:30:32.428Z,10.00
2019-04-20T02:32:23.946Z,10.00
2019-04-20T02:34:39.898Z,10.00
2019-04-20T02:40:56.833Z,10.10
2019-04-20T02:42:58.006Z,10.00
2019-04-20T02:46:41.545Z,10.00
2019-04-20T02:48:37.361Z,10.00
2019-04-20T02:52:20.910Z,9.80
2019-04-20T02:54:15.003Z,9.80
2019-04-20T02:56:15.357Z,9.80
2019-04-20T03:01:36.844Z,9.90
2019-04-20T03:03:22.795Z,9.80
2019-04-20T03:05:23.003Z,9.70
2019-04-20T03:07:14.889Z,9.70
2019-04-20T03:09:17.496Z,9.70
2019-04-20T03:11:18.033Z,9.70
2019-04-20T03:13:03.957Z,9.70
2019-04-20T03:14:53.930Z,9.70
2019-04-20T03:16:51.820Z,9.70
2019-04-20T03:18:41.160Z,9.70
2019-04-20T03:20:43.519Z,9.60
2019-04-20T03:22:47.975Z,9.50
2019-04-20T03:24:33.959Z,9.50
2019-04-20T03:26:31.301Z,9.50
2019-04-20T03:28:22.219Z,9.50
2019-04-20T03:31:16.520Z,9.40
2019-04-20T03:34:51.486Z,9.30
2019-04-20T03:36:25.874Z,9.30
2019-04-20T03:38:11.702Z,9.30
2019-04-20T03:39:56.893Z,9.30
2019-04-20T03:41:43.444Z,9.20
2019-04-20T03:43:32.866Z,9.20
2019-04-20T03:45:27.088Z,9.20
2019-04-20T03:47:30.443Z,9.20
2019-04-20T03:49:39.713Z,9.10
2019-04-20T03:51:33.316Z,9.00
2019-04-20T03:53:27.826Z,9.10
2019-04-20T03:55:26.178Z,9.10
2019-04-20T03:57:27.674Z,9.10
2019-04-20T03:59:35.995Z,9.20
2019-04-20T04:01:47.750Z,9.10
2019-04-20T04:03:47.219Z,9.10
2019-04-20T04:05:41.592Z,9.10
2019-04-20T04:07:26.515Z,9.00
2019-04-20T04:09:24.808Z,9.10
2019-04-20T04:11:24.445Z,9.20
2019-04-20T04:13:12.934Z,9.20
2019-04-20T04:15:06.500Z,9.30
2019-04-20T04:17:01.265Z,9.40
2019-04-20T04:19:01.478Z,9.40
2019-04-20T04:20:56.619Z,9.40
2019-04-20T04:23:00.407Z,9.30
2019-04-20T04:24:52.574Z,9.30
2019-04-20T04:26:44.138Z,9.30
2019-04-20T04:28:40.680Z,9.20
2019-04-20T04:30:30.594Z,9.20
2019-04-20T04:32:49.625Z,9.10
2019-04-20T04:34:22.999Z,9.00
2019-04-20T04:36:15.292Z,9.10
2019-04-20T04:38:06.935Z,9.20
2019-04-20T04:40:14.686Z,9.30
2019-04-20T04:42:10.235Z,9.30
2019-04-20T04:43:54.178Z,9.30
2019-04-20T04:45:31.697Z,9.30
2019-04-20T04:47:23.981Z,9.40
2019-04-20T04:49:24.926Z,9.40
2019-04-20T04:51:20.279Z,9.40
2019-04-20T04:53:11.445Z,9.40
2019-04-20T04:55:13.384Z,9.30
2019-04-20T04:56:52.562Z,9.50
2019-04-20T04:58:44.680Z,9.60
2019-04-20T05:00:39.106Z,9.50
2019-04-20T05:02:40.443Z,9.40
2019-04-20T05:05:05.690Z,9.40
2019-04-20T05:06:54.761Z,9.50
2019-04-20T05:08:38.722Z,9.60
2019-04-20T05:10:26.640Z,9.60
2019-04-20T05:12:23.948Z,9.50
2019-04-20T05:14:21.491Z,9.60
2019-04-20T05:16:21.695Z,9.60
2019-04-20T05:18:20.594Z,9.70
2019-04-20T05:20:13.503Z,9.70
2019-04-20T05:22:29.464Z,9.70
2019-04-20T05:24:03.269Z,9.70
2019-04-20T05:26:07.351Z,9.80
2019-04-20T05:27:56.281Z,9.80
2019-04-20T05:29:34.949Z,9.90
2019-04-20T05:31:36.723Z,10.00
2019-04-20T05:33:30.440Z,10.00
2019-04-20T05:35:30.983Z,10.10
2019-04-20T05:37:33.272Z,10.10
2019-04-20T05:39:29.261Z,10.30
2019-04-20T05:41:16.846Z,10.30
2019-04-20T05:43:20.710Z,10.40
2019-04-20T05:45:16.702Z,10.50
2019-04-20T05:47:11.221Z,10.60
2019-04-20T05:49:08.877Z,10.70
2019-04-20T05:50:57.274Z,10.70
2019-04-20T05:52:59.775Z,10.70
2019-04-20T05:54:51.139Z,10.90
2019-04-20T05:56:56.261Z,10.90
2019-04-20T05:58:34.399Z,11.00
2019-04-20T06:00:33.930Z,11.10
2019-04-20T06:02:27.664Z,11.30
2019-04-20T06:04:28.757Z,11.30
2019-04-20T06:06:15.127Z,11.40
2019-04-20T06:08:05.362Z,11.40
2019-04-20T06:10:09.865Z,11.40
2019-04-20T06:12:07.752Z,11.70
2019-04-20T06:13:44.292Z,11.80
2019-04-20T06:15:50.645Z,11.80
2019-04-20T06:17:58.013Z,11.90
2019-04-20T06:20:01.683Z,12.00
2019-04-20T06:22:02.281Z,12.00
2019-04-20T06:23:59.357Z,12.00
2019-04-20T06:26:04.067Z,12.20
2019-04-20T06:27:46.069Z,12.20
2019-04-20T06:29:38.038Z,12.20
2019-04-20T06:31:32.758Z,12.30
2019-04-20T06:34:01.358Z,12.60
2019-04-20T06:36:00.978Z,12.70
2019-04-20T06:37:39.046Z,12.80
2019-04-20T06:39:30.908Z,13.10
2019-04-20T06:41:33.067Z,13.20
2019-04-20T06:43:11.513Z,13.30
2019-04-20T06:45:22.626Z,13.50
2019-04-20T06:49:05.334Z,13.40
2019-04-20T06:50:52.219Z,13.50
2019-04-20T06:53:14.453Z,13.40
2019-04-20T06:56:59.453Z,13.80
2019-04-20T06:58:58.758Z,13.70
2019-04-20T07:00:49.640Z,13.70
2019-04-20T07:02:44.397Z,13.70
2019-04-20T07:08:40.910Z,14.10
2019-04-20T07:12:14.336Z,13.90
2019-04-20T07:13:54.406Z,13.90
2019-04-20T07:16:04.085Z,14.00
2019-04-20T07:18:08.145Z,14.10
2019-04-20T07:20:01.394Z,14.40
2019-04-20T07:22:15.308Z,14.50
2019-04-20T07:24:03.214Z,14.50
2019-04-20T07:25:52.891Z,14.60
2019-04-20T07:27:40.195Z,14.80
2019-04-20T07:29:40.859Z,14.90
2019-04-20T07:31:29.658Z,15.00
2019-04-20T07:33:29.736Z,15.10
2019-04-20T07:35:23.228Z,15.00
2019-04-20T07:37:43.196Z,15.20
2019-04-20T07:39:08.955Z,15.30
2019-04-20T07:40:58.860Z,15.00
2019-04-20T07:42:57.693Z,14.90
2019-04-20T07:44:55.219Z,14.90
2019-04-20T07:46:55.116Z,15.10
2019-04-20T07:48:29.593Z,15.30
2019-04-20T07:50:21.778Z,15.50
2019-04-20T07:52:03.931Z,15.50
2019-04-20T07:54:23.186Z,15.60
2019-04-20T07:56:14.236Z,15.50
2019-04-20T07:57:57.894Z,15.70
2019-04-20T08:00:00.372Z,15.80
2019-04-20T08:02:00.598Z,15.70
2019-04-20T08:03:50.352Z,15.90
2019-04-20T08:05:41.873Z,15.90
2019-04-20T08:07:36.067Z,15.90
2019-04-20T08:09:25.785Z,16.10
2019-04-20T08:11:31.783Z,16.00
2019-04-20T08:13:09.364Z,16.00
2019-04-20T08:14:46.773Z,16.00
2019-04-20T08:16:27.673Z,15.90
2019-04-20T08:17:56.789Z,16.20
2019-04-20T08:19:30.152Z,16.40
2019-04-20T08:21:02.452Z,16.60
2019-04-20T08:22:42.447Z,16.60
2019-04-20T08:24:13.285Z,16.50
2019-04-20T08:25:43.312Z,16.60
2019-04-20T08:27:09.112Z,16.80
2019-04-20T08:28:53.503Z,16.90
2019-04-20T08:30:58.220Z,16.80
2019-04-20T08:32:34.630Z,17.10
2019-04-20T08:34:33.751Z,17.10
2019-04-20T08:36:22.868Z,17.40
2019-04-20T08:38:47.307Z,17.70
2019-04-20T08:40:07.476Z,17.60
2019-04-20T08:42:20.510Z,17.40
2019-04-20T08:44:03.016Z,17.40
2019-04-20T08:45:57.480Z,17.20
2019-04-20T08:48:09.950Z,17.00
2019-04-20T08:49:41.351Z,17.10
2019-04-20T08:51:41.955Z,17.30
2019-04-20T08:53:30.782Z,17.30
2019-04-20T08:55:19.832Z,17.70
2019-04-20T08:56:59.607Z,17.80
2019-04-20T08:58:48.462Z,17.80
2019-04-20T09:00:48.695Z,18.00
2019-04-20T09:02:36.919Z,17.80
2019-04-20T09:04:37.321Z,17.70
2019-04-20T09:06:36.652Z,17.60
2019-04-20T09:08:26.245Z,17.80
2019-04-20T09:10:35.731Z,18.00
2019-04-20T09:12:26.754Z,17.90
2019-04-20T09:14:05.871Z,18.20
2019-04-20T09:15:59.850Z,18.40
2019-04-20T09:17:59.485Z,18.50
2019-04-20T09:19:55.732Z,18.40
2019-04-20T09:21:51.063Z,18.70
2019-04-20T09:23:51.821Z,18.80
2019-04-20T09:27:34.780Z,19.50
2019-04-20T09:29:32.909Z,19.50
2019-04-20T09:31:33.150Z,19.80
2019-04-20T09:33:48.688Z,20.10
2019-04-20T09:35:43.137Z,20.00
2019-04-20T09:37:43.416Z,20.10
2019-04-20T09:39:31.614Z,19.80
2019-04-20T09:41:54.595Z,19.60
2019-04-20T09:43:30.422Z,19.60
2019-04-20T09:45:33.059Z,20.10
2019-04-20T09:47:30.907Z,20.10
2019-04-20T09:49:20.706Z,19.80
2019-04-20T09:51:24.852Z,19.50
2019-04-20T09:53:17.400Z,19.60
2019-04-20T09:55:07.855Z,19.90
2019-04-20T09:57:11.817Z,20.30
2019-04-20T09:59:01.141Z,20.10
2019-04-20T10:00:56.841Z,20.00
2019-04-20T10:02:37.965Z,20.00
2019-04-20T10:04:29.109Z,20.10
2019-04-20T10:06:24.960Z,20.10
2019-04-20T10:08:17.512Z,19.90
2019-04-20T10:10:22.661Z,19.90
2019-04-20T10:12:04.110Z,19.90
2019-04-20T10:13:56.516Z,20.00
2019-04-20T10:15:49.967Z,20.20
2019-04-20T10:17:43.677Z,20.30
2019-04-20T10:19:39.136Z,20.10
2019-04-20T10:21:30.032Z,20.50
2019-04-20T10:23:22.699Z,20.80
2019-04-20T10:25:15.129Z,20.90
2019-04-20T10:27:08.281Z,20.90
2019-04-20T10:29:01.574Z,21.10
2019-04-20T10:30:54.718Z,20.70
2019-04-20T10:32:50.916Z,20.80
2019-04-20T10:34:41.309Z,21.00
2019-04-20T10:36:37.784Z,21.10
2019-04-20T10:38:34.210Z,20.90
2019-04-20T10:40:38.051Z,20.60
2019-04-20T10:42:20.491Z,20.80
2019-04-20T10:44:13.090Z,20.80
2019-04-20T10:46:06.966Z,20.90
2019-04-20T10:48:01.117Z,21.00
2019-04-20T10:49:53.640Z,21.10
2019-04-20T10:51:47.454Z,21.00
2019-04-20T10:53:40.423Z,20.90
2019-04-20T10:55:33.512Z,20.90
2019-04-20T10:57:27.789Z,21.20
2019-04-20T10:59:21.428Z,21.30
2019-04-20T11:01:15.682Z,21.50
2019-04-20T11:03:10.025Z,21.90
2019-04-20T11:05:02.730Z,22.20
2019-04-20T11:06:56.641Z,22.00
2019-04-20T11:08:49.068Z,21.70
2019-04-20T11:10:55.546Z,21.90
2019-04-20T11:12:35.512Z,21.60
2019-04-20T11:14:31.863Z,21.10
2019-04-20T11:16:22.258Z,21.10
2019-04-20T11:18:15.505Z,21.10
2019-04-20T11:20:07.995Z,21.10
2019-04-20T11:22:00.512Z,21.10
2019-04-20T11:23:54.036Z,21.00
2019-04-20T11:25:46.724Z,21.20
2019-04-20T11:27:38.682Z,21.50
2019-04-20T11:29:31.885Z,21.70
2019-04-20T11:31:28.754Z,21.80
2019-04-20T11:33:20.369Z,22.10
2019-04-20T11:35:21.290Z,22.20
2019-04-20T11:37:08.918Z,22.10
2019-04-20T11:39:03.064Z,22.30
2019-04-20T11:41:07.397Z,22.60
2019-04-20T11:42:50.942Z,22.20
2019-04-20T11:44:44.656Z,22.40
2019-04-20T11:46:38.775Z,22.30
2019-04-20T11:48:31.728Z,22.10
2019-04-20T11:50:25.210Z,22.20
2019-04-20T11:52:21.124Z,22.20
2019-04-20T11:54:12.497Z,21.90
2019-04-20T11:56:06.714Z,21.70
2019-04-20T11:57:58.523Z,21.70
2019-04-20T11:59:50.878Z,22.00
2019-04-20T12:01:51.996Z,22.40
2019-04-20T12:03:54.329Z,22.80
2019-04-20T12:05:41.523Z,22.90
2019-04-20T12:07:33.540Z,23.20
2019-04-20T12:09:26.166Z,23.60
2019-04-20T12:11:26.620Z,23.60
2019-04-20T12:13:14.595Z,24.20
2019-04-20T12:15:06.628Z,24.40
2019-04-20T12:16:59.617Z,24.50
2019-04-20T12:18:52.485Z,25.10
2019-04-20T12:20:45.097Z,25.20
2019-04-20T12:22:37.205Z,25.20
2019-04-20T12:24:29.452Z,24.90
2019-04-20T12:26:22.693Z,25.70
2019-04-20T12:28:15.764Z,26.00
2019-04-20T12:30:12.143Z,26.30
2019-04-20T12:32:06.935Z,26.40
2019-04-20T12:33:58.237Z,26.40
2019-04-20T12:35:50.540Z,26.00
2019-04-20T12:37:43.121Z,26.10
2019-04-20T12:39:37.266Z,25.70
2019-04-20T12:41:37.465Z,26.00
2019-04-20T12:43:23.747Z,25.30
2019-04-20T12:45:17.670Z,25.60
2019-04-20T12:47:10.131Z,25.50
2019-04-20T12:49:02.407Z,25.80
2019-04-20T12:50:55.445Z,25.70
2019-04-20T12:52:48.397Z,25.90
2019-04-20T12:54:42.840Z,25.90
2019-04-20T12:56:34.857Z,25.60
2019-04-20T12:58:28.467Z,25.60
2019-04-20T13:00:21.525Z,26.80
2019-04-20T13:02:15.411Z,27.70
2019-04-20T13:04:09.465Z,26.70
2019-04-20T13:06:03.804Z,26.50
2019-04-20T13:07:59.390Z,26.00
2019-04-20T13:09:51.134Z,26.50
2019-04-20T13:12:05.272Z,26.00
2019-04-20T13:14:22.186Z,26.20
2019-04-20T13:16:16.453Z,26.30
2019-04-20T13:18:09.457Z,26.40
2019-04-20T13:20:03.730Z,26.50
2019-04-20T13:21:56.893Z,26.60
2019-04-20T13:23:51.021Z,26.20
2019-04-20T13:25:43.797Z,26.00
2019-04-20T13:27:36.668Z,26.50
2019-04-20T13:29:29.051Z,26.70
2019-04-20T13:31:21.974Z,26.90
2019-04-20T13:33:14.257Z,26.40
2019-04-20T13:35:07.988Z,26.20
2019-04-20T13:37:02.192Z,26.40
2019-04-20T13:38:54.323Z,26.50
2019-04-20T13:40:48.072Z,26.50
2019-04-20T13:42:41.478Z,26.70
2019-04-20T13:44:34.964Z,26.90
2019-04-20T13:46:29.103Z,26.60
2019-04-20T13:48:21.690Z,27.10
2019-04-20T13:50:15.974Z,26.80
2019-04-20T13:52:08.759Z,26.50
2019-04-20T13:54:01.722Z,26.80
2019-04-20T13:55:54.174Z,27.20
2019-04-20T13:57:55.814Z,27.70
2019-04-20T13:59:50.206Z,27.80
2019-04-20T14:02:00.536Z,26.30
2019-04-20T14:04:10.695Z,26.70
2019-04-20T14:06:03.154Z,26.90
2019-04-20T14:07:55.663Z,26.70
2019-04-20T14:09:48.232Z,25.70
2019-04-20T14:11:41.360Z,26.30
2019-04-20T14:13:40.387Z,25.50
2019-04-20T14:15:29.002Z,26.00
2019-04-20T14:17:23.284Z,25.70
2019-04-20T14:19:16.707Z,26.50
2019-04-20T14:21:10.172Z,27.00
2019-04-20T14:23:03.195Z,27.50
2019-04-20T14:24:55.741Z,27.10
2019-04-20T14:26:48.503Z,27.50
2019-04-20T14:28:40.798Z,27.30
2019-04-20T14:30:33.125Z,27.40
2019-04-20T14:32:25.239Z,27.40
2019-04-20T14:34:18.772Z,26.90
2019-04-20T14:36:10.872Z,26.90
2019-04-20T14:38:03.898Z,27.10
2019-04-20T14:39:56.538Z,27.00
2019-04-20T14:41:49.416Z,26.60
2019-04-20T14:43:42.665Z,26.20
2019-04-20T14:45:34.585Z,25.50
2019-04-20T14:47:27.895Z,25.30
2019-04-20T14:49:20.803Z,25.60
2019-04-20T14:51:13.928Z,25.70
2019-04-20T14:53:07.389Z,25.10
2019-04-20T14:54:59.641Z,25.30
2019-04-20T14:56:52.148Z,25.10
2019-04-20T14:58:45.678Z,25.20
2019-04-20T15:00:54.641Z,25.40
2019-04-20T15:02:47.984Z,24.70
2019-04-20T15:04:41.297Z,24.20
2019-04-20T15:06:36.752Z,24.30
2019-04-20T15:08:28.023Z,23.90
2019-04-20T15:10:20.613Z,23.60
2019-04-20T15:12:14.931Z,23.50
2019-04-20T15:14:08.951Z,23.50
2019-04-20T15:16:02.425Z,23.80
2019-04-20T15:17:57.605Z,23.90
2019-04-20T15:19:52.049Z,24.10
2019-04-20T15:21:49.505Z,24.00
2019-04-20T15:23:41.742Z,24.40
2019-04-20T15:25:34.705Z,24.30
2019-04-20T15:27:28.131Z,24.30
2019-04-20T15:29:20.603Z,24.10
2019-04-20T15:31:14.210Z,24.00
2019-04-20T15:33:07.317Z,23.90
2019-04-20T15:35:00.687Z,24.00
2019-04-20T15:36:54.054Z,23.50
2019-04-20T15:38:47.214Z,23.80
2019-04-20T15:40:39.513Z,24.20
2019-04-20T15:42:33.173Z,24.60
2019-04-20T15:44:27.155Z,25.10
2019-04-20T15:46:21.256Z,24.80
2019-04-20T15:48:14.266Z,24.80
2019-04-20T15:50:07.848Z,24.90
2019-04-20T15:52:01.759Z,24.30
2019-04-20T15:53:55.627Z,24.30
2019-04-20T15:55:49.205Z,24.10
2019-04-20T15:57:42.626Z,23.70
2019-04-20T15:59:34.868Z,24.00
2019-04-20T16:01:30.245Z,23.80
2019-04-20T16:03:25.516Z,23.70
2019-04-20T16:05:19.728Z,23.20
2019-04-20T16:07:13.072Z,23.10
2019-04-20T16:09:06.260Z,22.90
2019-04-20T16:11:01.412Z,23.00
2019-04-20T16:13:07.344Z,22.70
2019-04-20T16:14:49.420Z,22.70
2019-04-20T16:16:42.565Z,22.70
2019-04-20T16:18:36.843Z,22.70
2019-04-20T16:20:43.102Z,22.70
2019-04-20T16:22:25.863Z,22.50
2019-04-20T16:24:19.367Z,22.50
2019-04-20T16:26:19.799Z,22.20
2019-04-20T16:28:13.941Z,21.70
2019-04-20T16:30:07.618Z,21.30
2019-04-20T16:32:00.529Z,21.10
2019-04-20T16:33:55.587Z,21.10
2019-04-20T16:35:46.892Z,21.00
2019-04-20T16:37:40.051Z,20.90
2019-04-20T16:39:34.368Z,20.70
2019-04-20T16:41:26.504Z,20.60
2019-04-20T16:43:27.617Z,20.70
2019-04-20T16:45:13.112Z,20.60
2019-04-20T16:47:06.066Z,20.50
2019-04-20T16:48:58.963Z,20.40
2019-04-20T16:50:51.260Z,20.40
2019-04-20T16:52:43.668Z,20.30
2019-04-20T16:54:36.116Z,20.40
2019-04-20T16:56:28.841Z,20.30
2019-04-20T16:58:21.751Z,20.30
2019-04-20T17:00:15.626Z,20.20
2019-04-20T17:02:08.689Z,20.20
2019-04-20T17:04:07.218Z,20.20
2019-04-20T17:05:55.968Z,20.10
2019-04-20T17:07:53.159Z,20.10
2019-04-20T17:09:47.480Z,20.00
2019-04-20T17:11:39.494Z,20.00
2019-04-20T17:13:38.800Z,19.90
2019-04-20T17:15:25.640Z,19.90
2019-04-20T17:17:17.934Z,19.80
2019-04-20T17:19:09.942Z,19.80
2019-04-20T17:21:05.863Z,19.80
2019-04-20T17:22:56.486Z,19.80
2019-04-20T17:24:49.443Z,19.70
2019-04-20T17:26:45.130Z,19.70
2019-04-20T17:28:42.751Z,19.70
2019-04-20T17:30:52.906Z,19.60
2019-04-20T17:32:47.525Z,19.50
2019-04-20T17:34:54.543Z,19.50
2019-04-20T17:36:37.114Z,19.50
2019-04-20T17:38:34.785Z,19.50
2019-04-20T17:40:43.055Z,19.40
2019-04-20T17:42:30.798Z,19.40
2019-04-20T17:44:29.062Z,19.40
2019-04-20T17:46:12.153Z,19.30
2019-04-20T17:48:14.237Z,19.30
2019-04-20T17:50:13.184Z,19.20
2019-04-20T17:52:11.711Z,19.10
2019-04-20T17:53:50.032Z,19.10
2019-04-20T17:55:41.311Z,19.00
2019-04-20T17:57:31.200Z,18.90
2019-04-20T17:59:24.302Z,19.00
2019-04-20T18:01:51.180Z,18.90
2019-04-20T18:04:03.226Z,18.90
2019-04-20T18:05:58.466Z,18.80
2019-04-20T18:07:52.486Z,18.80
2019-04-20T18:09:47.562Z,18.70
2019-04-20T18:11:21.964Z,18.60
2019-04-20T18:13:19.619Z,18.60
2019-04-20T18:15:29.512Z,18.60
2019-04-20T18:17:18.076Z,18.50
2019-04-20T18:19:09.940Z,18.40
2019-04-20T18:20:59.240Z,18.40
2019-04-20T18:22:56.483Z,18.30
2019-04-20T18:25:10.405Z,18.30
2019-04-20T18:27:01.017Z,18.30
2019-04-20T18:29:00.383Z,18.30
2019-04-20T18:30:52.531Z,18.30
2019-04-20T18:32:41.128Z,18.30
2019-04-20T18:34:47.266Z,18.20
2019-04-20T18:36:39.683Z,18.10
2019-04-20T18:38:31.104Z,18.00
2019-04-20T18:40:33.840Z,17.90
2019-04-20T18:42:26.332Z,17.90
2019-04-20T18:44:12.755Z,17.90
2019-04-20T18:46:21.891Z,17.90
2019-04-20T18:48:16.367Z,17.80
2019-04-20T18:50:04.213Z,17.70
2019-04-20T18:51:48.044Z,17.60
2019-04-20T18:53:44.403Z,17.60
2019-04-20T18:55:44.853Z,17.60
2019-04-20T18:57:31.171Z,17.60
2019-04-20T18:59:30.408Z,17.50
2019-04-20T19:01:17.368Z,17.50
2019-04-20T19:03:18.241Z,17.30
2019-04-20T19:05:05.533Z,17.30
2019-04-20T19:06:59.632Z,17.20
2019-04-20T19:08:53.378Z,17.20
2019-04-20T19:10:54.151Z,17.10
2019-04-20T19:12:49.710Z,17.10
2019-04-20T19:14:44.241Z,17.00
2019-04-20T19:16:53.801Z,17.00
2019-04-20T19:18:58.384Z,16.90
2019-04-20T19:20:43.184Z,16.90
2019-04-20T19:22:37.293Z,16.80
2019-04-20T19:24:33.065Z,16.80
2019-04-20T19:26:25.018Z,16.70
2019-04-20T19:28:20.725Z,16.70
2019-04-20T19:30:26.230Z,16.60
2019-04-20T19:32:27.737Z,16.60
2019-04-20T19:34:21.229Z,16.50
2019-04-20T19:36:09.290Z,16.50
2019-04-20T19:38:00.916Z,16.50
2019-04-20T19:39:53.172Z,16.50
2019-04-20T19:41:49.026Z,16.50
2019-04-20T19:43:22.787Z,16.40
2019-04-20T19:45:01.928Z,16.40
2019-04-20T19:46:51.178Z,16.40
2019-04-20T19:48:12.157Z,16.30
2019-04-20T19:50:28.569Z,16.30
2019-04-20T19:52:22.479Z,16.30
2019-04-20T19:53:59.607Z,16.30
2019-04-20T19:55:47.782Z,16.20
2019-04-20T19:57:46.492Z,16.20
2019-04-20T19:59:31.546Z,16.20
2019-04-20T20:01:15.793Z,16.20
2019-04-20T20:03:07.931Z,16.10
2019-04-20T20:05:06.804Z,16.10
2019-04-20T20:07:01.828Z,16.10
2019-04-20T20:08:56.206Z,16.10
2019-04-20T20:10:45.485Z,16.20
2019-04-20T20:12:39.909Z,16.20
2019-04-20T20:14:36.802Z,16.20
2019-04-20T20:16:33.594Z,16.10
2019-04-20T20:18:35.338Z,16.10
2019-04-20T20:20:35.881Z,16.00
2019-04-20T20:22:19.634Z,16.00
2019-04-20T20:24:02.337Z,16.00
2019-04-20T20:25:54.866Z,15.80
2019-04-20T20:27:37.702Z,15.70
2019-04-20T20:29:12.072Z,15.70
2019-04-20T20:31:08.632Z,15.70
2019-04-20T20:33:11.492Z,15.60
2019-04-20T20:34:56.006Z,15.50
2019-04-20T20:36:48.584Z,15.40
2019-04-20T20:38:42.577Z,15.30
2019-04-20T20:40:34.624Z,15.20
2019-04-20T20:42:35.388Z,15.10
2019-04-20T20:44:28.572Z,15.10
2019-04-20T20:46:21.615Z,15.00
2019-04-20T20:48:20.087Z,15.00
2019-04-20T20:50:20.402Z,15.00
2019-04-20T20:52:11.994Z,14.90
2019-04-20T20:53:56.472Z,14.90
2019-04-20T20:55:44.081Z,14.80
2019-04-20T20:57:44.952Z,14.80
2019-04-20T20:59:41.622Z,14.80
2019-04-20T21:01:27.549Z,14.80
2019-04-20T21:03:24.742Z,14.70
2019-04-20T21:05:11.569Z,14.60
2019-04-20T21:07:04.586Z,14.50
2019-04-20T21:08:59.961Z,14.50
2019-04-20T21:10:51.070Z,14.60
2019-04-20T21:12:53.352Z,14.70
2019-04-20T21:14:40.543Z,14.80
2019-04-20T21:16:33.382Z,14.80
2019-04-20T21:18:46.614Z,14.70
2019-04-20T21:20:40.659Z,14.70
2019-04-20T21:22:19.128Z,14.50
2019-04-20T21:24:13.951Z,14.40
2019-04-20T21:26:12.660Z,14.40
2019-04-20T21:28:02.587Z,14.20
2019-04-20T21:29:58.209Z,14.20
2019-04-20T21:31:57.074Z,14.10
2019-04-20T21:33:43.084Z,14.10
2019-04-20T21:35:39.057Z,14.00
2019-04-20T21:37:30.593Z,14.00
2019-04-20T21:39:35.085Z,13.90
2019-04-20T21:41:20.589Z,13.90
2019-04-20T21:43:13.179Z,13.90
2019-04-20T21:45:14.840Z,13.80
2019-04-20T21:47:02.973Z,13.70
2019-04-20T21:49:05.189Z,13.60
2019-04-20T21:51:05.810Z,13.60
2019-04-20T21:52:46.496Z,13.60
2019-04-20T21:54:36.263Z,13.50
2019-04-20T21:56:28.308Z,13.50
2019-04-20T21:58:28.076Z,13.40
2019-04-20T22:00:25.070Z,13.30
2019-04-20T22:02:19.474Z,13.30
2019-04-20T22:04:06.255Z,13.30
2019-04-20T22:06:02.559Z,13.30
2019-04-20T22:07:57.691Z,13.30
2019-04-20T22:09:53.341Z,13.30
2019-04-20T22:11:44.204Z,13.20
2019-04-20T22:13:40.112Z,13.20
2019-04-20T22:15:34.540Z,13.10
2019-04-20T22:17:28.659Z,13.10
2019-04-20T22:19:30.576Z,13.00
2019-04-20T22:21:21.421Z,13.00
2019-04-20T22:23:23.174Z,13.00
2019-04-20T22:25:16.179Z,13.10
2019-04-20T22:27:05.389Z,12.90
2019-04-20T22:28:50.127Z,12.90
2019-04-20T22:30:26.166Z,12.90
2019-04-20T22:32:20.452Z,12.90
2019-04-20T22:34:17.499Z,12.90
2019-04-20T22:36:09.518Z,12.80
2019-04-20T22:38:19.219Z,12.60
2019-04-20T22:40:20.503Z,12.50
2019-04-20T22:42:11.480Z,12.40
2019-04-20T22:44:02.751Z,12.40
2019-04-20T22:45:57.215Z,12.30
2019-04-20T22:47:52.998Z,12.20
2019-04-20T22:50:02.327Z,12.20
2019-04-20T22:51:49.581Z,12.10
2019-04-20T22:53:44.204Z,12.20
2019-04-20T22:55:48.825Z,12.20
2019-04-20T22:57:33.000Z,12.10
2019-04-20T22:59:16.833Z,12.20
2019-04-20T23:01:19.353Z,12.30
2019-04-20T23:03:00.863Z,12.30
2019-04-20T23:04:53.353Z,12.20
2019-04-20T23:06:49.968Z,12.30
2019-04-20T23:08:40.469Z,12.10
2019-04-20T23:10:38.698Z,12.10
2019-04-20T23:12:28.722Z,12.10
2019-04-20T23:14:20.859Z,12.10
2019-04-20T23:16:13.355Z,12.20
2019-04-20T23:18:06.243Z,12.10
2019-04-20T23:20:02.816Z,12.10
2019-04-20T23:21:59.085Z,12.20
2019-04-20T23:23:46.608Z,12.30
2019-04-20T23:25:39.022Z,12.30
2019-04-20T23:27:34.808Z,12.30
2019-04-20T23:29:27.194Z,12.30
2019-04-20T23:31:22.102Z,12.30
2019-04-20T23:33:14.007Z,12.30
2019-04-20T23:35:11.905Z,12.20
2019-04-20T23:37:00.990Z,12.20
2019-04-20T23:38:57.709Z,12.20
2019-04-20T23:40:47.889Z,12.20
2019-04-20T23:42:44.518Z,12.20
2019-04-20T23:44:45.924Z,12.30
2019-04-20T23:46:45.279Z,12.30
2019-04-20T23:48:46.411Z,12.40
2019-04-20T23:50:56.985Z,12.40
2019-04-20T23:52:53.879Z,12.40
2019-04-20T23:54:31.483Z,12.40
2019-04-20T23:56:22.153Z,12.30
2019-04-20T23:58:16.390Z,12.30
